sensor_id;sensor_type;location;lat;lon;timestamp;temperature;humidity
85345;SHT30;75761;45.604;5.216;2024-01-15T14:05:10;24.74;34.59
85345;SHT30;75761;45.604;5.216;2024-01-15T14:07:41;24.66;36.08
85345;SHT30;75761;45.604;5.216;2024-01-15T14:10:09;24.63;36.70
85345;SHT30;75761;45.604;5.216;2024-01-15T14:12:35;24.61;35.09
85345;SHT30;75761;45.604;5.216;2024-01-15T14:15:02;24.46;34.33
85345;SHT30;75761;45.604;5.216;2024-01-15T14:17:28;24.35;35.35
85345;SHT30;75761;45.604;5.216;2024-01-15T14:19:53;24.28;35.50
85345;SHT30;75761;45.604;5.216;2024-01-15T14:22:18;24.26;35.94
85345;SHT30;75761;45.604;5.216;2024-01-15T14:24:44;24.26;36.32
85345;SHT30;75761;45.604;5.216;2024-01-15T14:27:09;24.23;36.49
85345;SHT30;75761;45.604;5.216;2024-01-15T14:29:35;24.22;36.68
85345;SHT30;75761;45.604;5.216;2024-01-15T14:32:01;24.23;36.70
85345;SHT30;75761;45.604;5.216;2024-01-15T14:34:27;24.23;36.77
85345;SHT30;75761;45.604;5.216;2024-01-15T14:36:52;24.26;36.74
85345;SHT30;75761;45.604;5.216;2024-01-15T14:39:24;24.29;36.82
85345;SHT30;75761;45.604;5.216;2024-01-15T14:41:49;24.35;36.82
85345;SHT30;75761;45.604;5.216;2024-01-15T14:44:15;24.35;36.78
85345;SHT30;75761;45.604;5.216;2024-01-15T14:46:40;24.42;36.88
85345;SHT30;75761;45.604;5.216;2024-01-15T14:49:06;24.42;36.85
85345;SHT30;75761;45.604;5.216;2024-01-15T14:51:31;24.48;36.81
85345;SHT30;75761;45.604;5.216;2024-01-15T14:53:57;24.50;36.77
85345;SHT30;75761;45.604;5.216;2024-01-15T14:56:22;24.57;36.81
85345;SHT30;75761;45.604;5.216;2024-01-15T14:58:47;24.60;36.83
85345;SHT30;75761;45.604;5.216;2024-01-15T15:01:13;24.63;36.78
85345;SHT30;75761;45.604;5.216;2024-01-15T15:03:39;24.64;36.80
85345;SHT30;75761;45.604;5.216;2024-01-15T15:06:05;24.69;36.66
85345;SHT30;75761;45.604;5.216;2024-01-15T15:08:34;24.70;36.60
85345;SHT30;75761;45.604;5.216;2024-01-15T15:11:00;24.74;36.59
85345;SHT30;75761;45.604;5.216;2024-01-15T15:13:26;24.76;36.73
85345;SHT30;75761;45.604;5.216;2024-01-15T15:15:52;24.79;36.66
85345;SHT30;75761;45.604;5.216;2024-01-15T15:18:20;24.80;36.59
85345;SHT30;75761;45.604;5.216;2024-01-15T15:20:47;24.80;36.65
85345;SHT30;75761;45.604;5.216;2024-01-15T15:23:12;24.83;36.58
85345;SHT30;75761;45.604;5.216;2024-01-15T15:25:38;24.81;36.74
85345;SHT30;75761;45.604;5.216;2024-01-15T15:28:03;24.81;36.59
85345;SHT30;75761;45.604;5.216;2024-01-15T15:30:31;24.83;36.67
85345;SHT30;75761;45.604;5.216;2024-01-15T15:32:56;24.83;36.59
85345;SHT30;75761;45.604;5.216;2024-01-15T15:35:22;24.81;36.64
85345;SHT30;75761;45.604;5.216;2024-01-15T15:37:47;24.84;36.62
85345;SHT30;75761;45.604;5.216;2024-01-15T15:40:13;24.83;36.61
85345;SHT30;75761;45.604;5.216;2024-01-15T15:42:39;24.84;36.51
85345;SHT30;75761;45.604;5.216;2024-01-15T15:45:05;24.76;35.44
85345;SHT30;75761;45.604;5.216;2024-01-15T15:47:31;24.73;36.18
85345;SHT30;75761;45.604;5.216;2024-01-15T15:49:56;24.74;36.30
85345;SHT30;75761;45.604;5.216;2024-01-15T15:52:22;24.76;36.25
85345;SHT30;75761;45.604;5.216;2024-01-15T15:54:47;24.79;36.29
85345;SHT30;75761;45.604;5.216;2024-01-15T15:57:13;24.77;36.21
85345;SHT30;75761;45.604;5.216;2024-01-15T15:59:38;24.77;36.29
85345;SHT30;75761;45.604;5.216;2024-01-15T16:02:03;24.77;36.21
85345;SHT30;75761;45.604;5.216;2024-01-15T16:04:29;24.77;36.20
85345;SHT30;75761;45.604;5.216;2024-01-15T16:06:54;24.76;36.18
85345;SHT30;75761;45.604;5.216;2024-01-15T16:09:19;24.79;36.15
85345;SHT30;75761;45.604;5.216;2024-01-15T16:11:45;24.79;35.49
85345;SHT30;75761;45.604;5.216;2024-01-15T16:14:11;24.74;36.07
85345;SHT30;75761;45.604;5.216;2024-01-15T16:16:36;24.76;36.14
85345;SHT30;75761;45.604;5.216;2024-01-15T16:19:02;24.73;36.21
85345;SHT30;75761;45.604;5.216;2024-01-15T16:21:28;24.70;36.25
85345;SHT30;75761;45.604;5.216;2024-01-15T16:23:54;24.73;36.23
85345;SHT30;75761;45.604;5.216;2024-01-15T16:26:20;24.70;36.32
85345;SHT30;75761;45.604;5.216;2024-01-15T16:28:46;24.69;34.97
85345;SHT30;75761;45.604;5.216;2024-01-15T16:31:11;24.66;35.77
85345;SHT30;75761;45.604;5.216;2024-01-15T16:33:37;24.66;36.24
85345;SHT30;75761;45.604;5.216;2024-01-15T16:36:03;24.66;36.22
85345;SHT30;75761;45.604;5.216;2024-01-15T16:38:28;24.64;36.35
85345;SHT30;75761;45.604;5.216;2024-01-15T16:40:54;24.67;36.31
85345;SHT30;75761;45.604;5.216;2024-01-15T16:43:22;24.70;36.24
85345;SHT30;75761;45.604;5.216;2024-01-15T16:45:47;24.69;36.35
85345;SHT30;75761;45.604;5.216;2024-01-15T16:48:13;24.70;36.23
85345;SHT30;75761;45.604;5.216;2024-01-15T16:50:38;24.73;36.45
85345;SHT30;75761;45.604;5.216;2024-01-15T16:53:04;24.71;36.35
85345;SHT30;75761;45.604;5.216;2024-01-15T16:55:29;24.76;36.31
85345;SHT30;75761;45.604;5.216;2024-01-15T16:57:55;24.74;36.46
85345;SHT30;75761;45.604;5.216;2024-01-15T17:00:20;24.76;36.43
85345;SHT30;75761;45.604;5.216;2024-01-15T17:02:46;24.76;36.40
85345;SHT30;75761;45.604;5.216;2024-01-15T17:05:11;24.79;36.48
85345;SHT30;75761;45.604;5.216;2024-01-15T17:07:37;24.80;36.33
85345;SHT30;75761;45.604;5.216;2024-01-15T17:10:04;24.79;36.37
85345;SHT30;75761;45.604;5.216;2024-01-15T17:12:29;24.83;36.28
85345;SHT30;75761;45.604;5.216;2024-01-15T17:14:56;24.84;36.40
85345;SHT30;75761;45.604;5.216;2024-01-15T17:17:21;24.81;36.30
85345;SHT30;75761;45.604;5.216;2024-01-15T17:19:48;24.86;36.36
85345;SHT30;75761;45.604;5.216;2024-01-15T17:22:14;24.86;35.13
85345;SHT30;75761;45.604;5.216;2024-01-15T17:24:40;24.77;35.74
85345;SHT30;75761;45.604;5.216;2024-01-15T17:27:06;24.79;36.08
85345;SHT30;75761;45.604;5.216;2024-01-15T17:29:33;24.80;36.04
85345;SHT30;75761;45.604;5.216;2024-01-15T17:31:58;24.81;36.19
85345;SHT30;75761;45.604;5.216;2024-01-15T17:34:24;24.83;35.89
85345;SHT30;75761;45.604;5.216;2024-01-15T17:36:49;24.83;36.08
85345;SHT30;75761;45.604;5.216;2024-01-15T17:39:15;24.84;35.87
85345;SHT30;75761;45.604;5.216;2024-01-15T17:41:40;24.84;35.97
85345;SHT30;75761;45.604;5.216;2024-01-15T17:44:06;24.83;35.76
85345;SHT30;75761;45.604;5.216;2024-01-15T17:46:32;24.87;36.05
85345;SHT30;75761;45.604;5.216;2024-01-15T17:48:57;24.87;36.10
85345;SHT30;75761;45.604;5.216;2024-01-15T17:51:32;24.87;36.29
85345;SHT30;75761;45.604;5.216;2024-01-15T17:53:58;24.88;36.30
85345;SHT30;75761;45.604;5.216;2024-01-15T17:56:24;24.90;36.33
85345;SHT30;75761;45.604;5.216;2024-01-15T17:58:50;24.92;36.10
85345;SHT30;75761;45.604;5.216;2024-01-15T18:01:16;24.92;36.30
85345;SHT30;75761;45.604;5.216;2024-01-15T18:03:44;24.94;36.44
85345;SHT30;75761;45.604;5.216;2024-01-15T18:06:09;24.98;36.52
85345;SHT30;75761;45.604;5.216;2024-01-15T18:08:35;24.98;36.79
85345;SHT30;75761;45.604;5.216;2024-01-15T18:11:02;25.01;36.85
85345;SHT30;75761;45.604;5.216;2024-01-15T18:13:27;24.98;36.97
85345;SHT30;75761;45.604;5.216;2024-01-15T18:15:56;25.00;37.02
85345;SHT30;75761;45.604;5.216;2024-01-15T18:18:22;24.98;37.10
85345;SHT30;75761;45.604;5.216;2024-01-15T18:20:47;25.00;37.07
85345;SHT30;75761;45.604;5.216;2024-01-15T18:23:14;24.95;37.15
85345;SHT30;75761;45.604;5.216;2024-01-15T18:25:41;24.95;35.57
85345;SHT30;75761;45.604;5.216;2024-01-15T18:28:07;24.88;36.69
85345;SHT30;75761;45.604;5.216;2024-01-15T18:30:33;24.88;36.90
85345;SHT30;75761;45.604;5.216;2024-01-15T18:32:59;24.86;37.12
85345;SHT30;75761;45.604;5.216;2024-01-15T18:35:25;24.87;37.18
85345;SHT30;75761;45.604;5.216;2024-01-15T18:37:51;24.86;37.47
85345;SHT30;75761;45.604;5.216;2024-01-15T18:40:17;24.84;37.62
85345;SHT30;75761;45.604;5.216;2024-01-15T18:42:43;24.84;37.63
85345;SHT30;75761;45.604;5.216;2024-01-15T18:45:08;24.84;37.75
85345;SHT30;75761;45.604;5.216;2024-01-15T18:47:34;24.86;37.35
85345;SHT30;75761;45.604;5.216;2024-01-15T18:49:59;24.88;37.45
85345;SHT30;75761;45.604;5.216;2024-01-15T18:52:25;24.90;37.49
85345;SHT30;75761;45.604;5.216;2024-01-15T18:54:51;24.91;37.42
85345;SHT30;75761;45.604;5.216;2024-01-15T18:57:16;24.94;37.47
85345;SHT30;75761;45.604;5.216;2024-01-15T18:59:43;24.97;37.45
85345;SHT30;75761;45.604;5.216;2024-01-15T19:02:10;24.97;37.17
85345;SHT30;75761;45.604;5.216;2024-01-15T19:04:36;25.03;37.21
85345;SHT30;75761;45.604;5.216;2024-01-15T19:07:01;25.06;36.89
85345;SHT30;75761;45.604;5.216;2024-01-15T19:09:27;25.10;37.11
85345;SHT30;75761;45.604;5.216;2024-01-15T19:11:52;25.11;37.03
85345;SHT30;75761;45.604;5.216;2024-01-15T19:14:17;25.12;37.05
85345;SHT30;75761;45.604;5.216;2024-01-15T19:16:43;25.17;37.11
85345;SHT30;75761;45.604;5.216;2024-01-15T19:19:09;25.18;37.03
85345;SHT30;75761;45.604;5.216;2024-01-15T19:21:35;25.24;36.83
85345;SHT30;75761;45.604;5.216;2024-01-15T19:24:00;25.25;36.85
85345;SHT30;75761;45.604;5.216;2024-01-15T19:26:27;25.27;36.77
85345;SHT30;75761;45.604;5.216;2024-01-15T19:28:53;25.28;36.81
85345;SHT30;75761;45.604;5.216;2024-01-15T19:31:18;25.32;36.63
85345;SHT30;75761;45.604;5.216;2024-01-15T19:33:44;25.32;36.97
85345;SHT30;75761;45.604;5.216;2024-01-15T19:36:23;25.27;36.81
85345;SHT30;75761;45.604;5.216;2024-01-15T19:38:50;25.31;36.77
85345;SHT30;75761;45.604;5.216;2024-01-15T19:41:15;25.34;36.73
85345;SHT30;75761;45.604;5.216;2024-01-15T19:43:41;25.37;36.67
85345;SHT30;75761;45.604;5.216;2024-01-15T19:46:06;25.38;36.67
85345;SHT30;75761;45.604;5.216;2024-01-15T19:48:31;25.38;36.53
85345;SHT30;75761;45.604;5.216;2024-01-15T19:50:57;25.41;36.63
85345;SHT30;75761;45.604;5.216;2024-01-15T19:53:22;25.39;36.51
85345;SHT30;75761;45.604;5.216;2024-01-15T19:55:48;25.39;36.46
85345;SHT30;75761;45.604;5.216;2024-01-15T19:58:13;25.41;36.35
85345;SHT30;75761;45.604;5.216;2024-01-15T20:00:39;25.39;36.62
85345;SHT30;75761;45.604;5.216;2024-01-15T20:03:05;25.38;36.50
85345;SHT30;75761;45.604;5.216;2024-01-15T20:05:30;25.21;34.03
85345;SHT30;75761;45.604;5.216;2024-01-15T20:07:57;25.15;35.51
85345;SHT30;75761;45.604;5.216;2024-01-15T20:10:22;25.15;36.16
85345;SHT30;75761;45.604;5.216;2024-01-15T20:12:49;25.18;36.32
85345;SHT30;75761;45.604;5.216;2024-01-15T20:15:14;25.24;36.54
85345;SHT30;75761;45.604;5.216;2024-01-15T20:17:40;25.27;36.46
85345;SHT30;75761;45.604;5.216;2024-01-15T20:20:07;25.29;36.15
85345;SHT30;75761;45.604;5.216;2024-01-15T20:22:36;25.34;36.06
85345;SHT30;75761;45.604;5.216;2024-01-15T20:25:01;25.38;35.99
85345;SHT30;75761;45.604;5.216;2024-01-15T20:27:26;25.43;35.98
85345;SHT30;75761;45.604;5.216;2024-01-15T20:29:52;25.43;35.98
85345;SHT30;75761;45.604;5.216;2024-01-15T20:32:17;25.50;35.94
85345;SHT30;75761;45.604;5.216;2024-01-15T20:34:43;25.53;35.80
85345;SHT30;75761;45.604;5.216;2024-01-15T20:37:09;25.53;35.83
85345;SHT30;75761;45.604;5.216;2024-01-15T20:39:34;25.58;35.70
85345;SHT30;75761;45.604;5.216;2024-01-15T20:42:00;25.59;35.83
85345;SHT30;75761;45.604;5.216;2024-01-15T20:44:26;25.61;35.62
85345;SHT30;75761;45.604;5.216;2024-01-15T20:46:52;25.65;35.62
85345;SHT30;75761;45.604;5.216;2024-01-15T20:49:18;25.65;35.67
85345;SHT30;75761;45.604;5.216;2024-01-15T20:51:44;25.66;35.62
85345;SHT30;75761;45.604;5.216;2024-01-15T20:54:09;25.68;35.77
85345;SHT30;75761;45.604;5.216;2024-01-15T20:56:35;25.68;35.68
85345;SHT30;75761;45.604;5.216;2024-01-15T20:59:01;25.69;35.75
85345;SHT30;75761;45.604;5.216;2024-01-15T21:01:26;25.69;35.65
85345;SHT30;75761;45.604;5.216;2024-01-15T21:03:53;25.66;35.64
85345;SHT30;75761;45.604;5.216;2024-01-15T21:06:18;25.68;35.73
85345;SHT30;75761;45.604;5.216;2024-01-15T21:08:44;25.66;35.77
85345;SHT30;75761;45.604;5.216;2024-01-15T21:11:10;25.66;35.63
85345;SHT30;75761;45.604;5.216;2024-01-15T21:13:37;25.63;35.80
85345;SHT30;75761;45.604;5.216;2024-01-15T21:16:04;25.66;35.72
85345;SHT30;75761;45.604;5.216;2024-01-15T21:18:31;25.63;35.65
85345;SHT30;75761;45.604;5.216;2024-01-15T21:20:56;25.62;35.38
85345;SHT30;75761;45.604;5.216;2024-01-15T21:23:22;25.58;35.52
85345;SHT30;75761;45.604;5.216;2024-01-15T21:25:47;25.57;35.51
85345;SHT30;75761;45.604;5.216;2024-01-15T21:28:12;25.50;35.56
85345;SHT30;75761;45.604;5.216;2024-01-15T21:30:38;25.46;35.65
85345;SHT30;75761;45.604;5.216;2024-01-15T21:33:04;25.46;35.69
85345;SHT30;75761;45.604;5.216;2024-01-15T21:35:30;25.42;35.80
85345;SHT30;75761;45.604;5.216;2024-01-15T21:37:55;25.42;35.80
85345;SHT30;75761;45.604;5.216;2024-01-15T21:40:20;25.37;35.80
85345;SHT30;75761;45.604;5.216;2024-01-15T21:42:46;25.35;35.90
85345;SHT30;75761;45.604;5.216;2024-01-15T21:45:11;25.37;35.82
85345;SHT30;75761;45.604;5.216;2024-01-15T21:47:37;25.29;35.86
85345;SHT30;75761;45.604;5.216;2024-01-15T21:50:06;25.28;35.88
85345;SHT30;75761;45.604;5.216;2024-01-15T21:52:33;25.27;35.95
85345;SHT30;75761;45.604;5.216;2024-01-15T21:54:59;25.22;35.92
85345;SHT30;75761;45.604;5.216;2024-01-15T21:57:24;25.18;35.95
85345;SHT30;75761;45.604;5.216;2024-01-15T21:59:49;25.15;35.91
85345;SHT30;75761;45.604;5.216;2024-01-15T22:02:15;25.15;35.99
85345;SHT30;75761;45.604;5.216;2024-01-15T22:04:40;25.11;36.05
85345;SHT30;75761;45.604;5.216;2024-01-15T22:07:05;25.07;36.01
85345;SHT30;75761;45.604;5.216;2024-01-15T22:09:31;25.04;35.98
85345;SHT30;75761;45.604;5.216;2024-01-15T22:11:57;25.04;36.18
85345;SHT30;75761;45.604;5.216;2024-01-15T22:14:22;24.98;36.18
85345;SHT30;75761;45.604;5.216;2024-01-15T22:16:48;24.98;36.09
85345;SHT30;75761;45.604;5.216;2024-01-15T22:19:14;24.94;36.09
85345;SHT30;75761;45.604;5.216;2024-01-15T22:21:46;24.91;36.14
85345;SHT30;75761;45.604;5.216;2024-01-15T22:24:12;24.87;36.11
85345;SHT30;75761;45.604;5.216;2024-01-15T22:26:38;24.86;36.31
85345;SHT30;75761;45.604;5.216;2024-01-15T22:29:03;24.84;36.27
85345;SHT30;75761;45.604;5.216;2024-01-15T22:31:29;24.77;36.17
85345;SHT30;75761;45.604;5.216;2024-01-15T22:33:55;24.76;36.33
85345;SHT30;75761;45.604;5.216;2024-01-15T22:36:20;24.71;36.32
85345;SHT30;75761;45.604;5.216;2024-01-15T22:38:45;24.70;36.40
85345;SHT30;75761;45.604;5.216;2024-01-15T22:41:11;24.70;36.44
85345;SHT30;75761;45.604;5.216;2024-01-15T22:43:36;24.61;36.38
85345;SHT30;75761;45.604;5.216;2024-01-15T22:46:02;24.61;36.39
85345;SHT30;75761;45.604;5.216;2024-01-15T22:48:27;24.57;36.36
85345;SHT30;75761;45.604;5.216;2024-01-15T22:50:53;24.53;36.44
85345;SHT30;75761;45.604;5.216;2024-01-15T22:53:18;24.50;36.41
85345;SHT30;75761;45.604;5.216;2024-01-15T22:55:43;24.49;36.63
85345;SHT30;75761;45.604;5.216;2024-01-15T22:58:09;24.44;36.53
85345;SHT30;75761;45.604;5.216;2024-01-15T23:00:34;24.39;36.55
85345;SHT30;75761;45.604;5.216;2024-01-15T23:02:59;24.39;36.64
85345;SHT30;75761;45.604;5.216;2024-01-15T23:05:26;24.36;36.61
85345;SHT30;75761;45.604;5.216;2024-01-15T23:07:51;24.33;36.69
85345;SHT30;75761;45.604;5.216;2024-01-15T23:10:17;24.29;36.63
85345;SHT30;75761;45.604;5.216;2024-01-15T23:12:42;24.26;36.69
85345;SHT30;75761;45.604;5.216;2024-01-15T23:15:08;24.21;36.72
85345;SHT30;75761;45.604;5.216;2024-01-15T23:17:33;24.18;36.74
85345;SHT30;75761;45.604;5.216;2024-01-15T23:20:00;24.18;36.79
85345;SHT30;75761;45.604;5.216;2024-01-15T23:22:25;24.12;36.92
85345;SHT30;75761;45.604;5.216;2024-01-15T23:24:50;24.09;36.82
85345;SHT30;75761;45.604;5.216;2024-01-15T23:27:16;24.06;36.83
85345;SHT30;75761;45.604;5.216;2024-01-15T23:29:41;24.04;36.94
85345;SHT30;75761;45.604;5.216;2024-01-15T23:32:07;24.01;36.96
85345;SHT30;75761;45.604;5.216;2024-01-15T23:34:34;23.97;36.92
85345;SHT30;75761;45.604;5.216;2024-01-15T23:37:00;23.95;37.04
85345;SHT30;75761;45.604;5.216;2024-01-15T23:39:25;23.88;36.95
85345;SHT30;75761;45.604;5.216;2024-01-15T23:41:51;23.89;36.98
85345;SHT30;75761;45.604;5.216;2024-01-15T23:44:17;23.85;36.97
85345;SHT30;75761;45.604;5.216;2024-01-15T23:46:42;23.79;37.03
85345;SHT30;75761;45.604;5.216;2024-01-15T23:49:07;23.81;36.99
85345;SHT30;75761;45.604;5.216;2024-01-15T23:51:33;23.75;37.06
85345;SHT30;75761;45.604;5.216;2024-01-15T23:53:58;23.72;37.01
85345;SHT30;75761;45.604;5.216;2024-01-15T23:56:23;23.71;36.97
85345;SHT30;75761;45.604;5.216;2024-01-15T23:58:49;23.65;37.03
